GOP weather

Gorakhpur Airport
Gorakhpur, Uttar Pradesh, India

Public forecast

Using degrees Celsius for public forecast. Weather courtesy of forecast.io.

METAR (pilot weather report)

Retrieved 2019/09/21 07:30 UTC (16 minutes ago):

VEGK 210730Z 01004KT 6000 TSRA SCT025 FEW030CB SCT090 30/30 Q1007 TEMPO 3000 IN TSRA

TAF (pilot weather forecast)

Retrieved 2019/09/21 06:30 UTC (1 hour ago):

TAF VEGK 210330Z 2106/2118 09005KT 6000 SCT025 SCT100 TEMPO 2108/2111 SCT020 FEW025TCU SCT100